Pagrindinis puslapis
METAR-TAF:

METAR-TAF

Oro uostai :

Librevilio oro uostas

Librevilis, Gabonas

platuma: 00-27N, ilguma: 009-25E, Aukštis: 12 m

Dabartinis oras

Ataskaita buvo paskelbta 22 minutes, ne 07:30 UTC
Vėjas 5 kt iš Pietų, svyruoja nuo Pietryčių ir Pietų/Pietvakarių
Temperatūra 29°C
Drėgmė 84%
Slėgis 1011 hPa
Matomumas 10 km arba daugiau
Išsisklaidę debesys ne aukštis 1200 ft

METAR: FOOL 230730Z 17005KT 130V200 9999 SCT012 29/26 Q1011 NOSIG

Laikas: 08:52 (07:52 UTC)

Prognozė

Ataskaita buvo paskelbta 2 valandos ir 7 minutes, ne 05:45 UTC
Prognozė galioja nuo 23 metu 06 UTC su 24 metu 12 UTC
Vėjas 7 kt iš Pietų/Pietvakarių
Matomumas: 8000 m
Išsisklaidę debesys ne aukštis 1200 ft
Mažai debesys ne aukštis 2000 ft, Liūtiniai kamuoliniai debesys.
Su prošvaistėmis ne aukštis 3300 ft
Tikimybė 30% :
Laikinai
nuo 23 metu 18 UTC su 23 metu 24 UTC
perkūnija
Laikinai
nuo 24 metu 04 UTC su 24 metu 07 UTC
Matomumas: 4500 m
rūkana

TAF: FOOL 230545Z 2306/2412 21007KT 8000 SCT012 FEW020CB BKN033 PROB30 TEMPO 2318/2324 TS TEMPO 2404/2407 4500 BR

Orai ataskaitas ir orų prognozės (METAR, TAF).

turimą stotys yra geltonos ir raudonos taškus žemėlapyje.

Perkelti pele per norėdami pamatyti stoties vardą.

Tada spustelėkite, norėdami matyti oro stebėjimo ir prognozės.

Norėdami pakeisti žemėlapį: spustelėkite ant žalios mygtukų su juodo kryžiaus žemyn,; žalią mygtuką su brūkšneliu, jei norite nutolinti; arba žalių rodyklių gretimoms žemėlapius.


METAR-TAF: